OPDG

Dera Ghazi Khan Airport

Dera Ghazi Khan, Pakistan
TAF OPDG 182145Z 1900/1918 05010KT 4000 FU SCT120 TN13/1901Z TX27/1910Z PROB30 TEMPO 1901/1905 05005KT 2000 BR FEW120
Issued Valid From Valid To
Nov-18 @ 21:45 UTC
(3 hours ago)
Nov-19 @ 00:00 UTC
(an hour ago)
Nov-19 @ 18:00 UTC
(in 17 hours)
Nov-19 @ 00:00 to Nov-19 @ 18:00
TAF OPDG 182145Z 1900/1918 05010KT 4000 FU SCT120 TN13/1901Z TX27/1910Z
Wind Visibility Clouds Conditions
50° at 10 knots 4,007 meters
  • Scattered at 12,000' AGL
  • Smoke
Temporary  (Probability 30%) Nov-19 @ 01:00 to Nov-19 @ 05:00
PROB30 TEMPO 1901/1905 05005KT 2000 BR FEW120
Wind Visibility Clouds Conditions
50° at 5 knots 1,996 meters
  • Few at 12,000' AGL
  • Mist
TAF OPDG 182145Z 1900/1918 05010KT 4000 FU SCT120 TN13/1901Z TX27/1910Z PROB30 TEMPO 1901/1905 05005KT 2000 BR FEW120
Issued Nov-18 @ 21:45 UTC
(3 hours ago)
Valid From Nov-19 @ 00:00 UTC
(an hour ago)
Valid To Nov-19 @ 18:00 UTC
(in 17 hours)
Nov-19 @ 00:00 - Nov-19 @ 18:00
Wind Visibility
50° at 10 knots 4,007 meters
Clouds
  • Scattered at 12,000' AGL
Conditions
  • Smoke
Probability 30% Temporary Nov-19 @ 01:00 - Nov-19 @ 05:00
Wind Visibility
50° at 5 knots 1,996 meters
Clouds
  • Few at 12,000' AGL
Conditions
  • Mist